createdAt,value
2018-10-09T00:00:21.884Z,10.80
2018-10-09T00:02:49.634Z,10.80
2018-10-09T00:05:17.349Z,10.80
2018-10-09T00:07:45.018Z,10.80
2018-10-09T00:10:12.809Z,10.80
2018-10-09T00:12:40.483Z,10.70
2018-10-09T00:15:08.501Z,10.70
2018-10-09T00:17:36.424Z,10.60
2018-10-09T00:20:04.301Z,10.60
2018-10-09T00:22:32.008Z,10.50
2018-10-09T00:24:59.837Z,10.50
2018-10-09T00:27:27.544Z,10.40
2018-10-09T00:29:55.264Z,10.30
2018-10-09T00:32:22.969Z,10.30
2018-10-09T00:34:50.681Z,10.20
2018-10-09T00:37:18.418Z,10.20
2018-10-09T00:39:46.140Z,10.30
2018-10-09T00:42:13.889Z,10.20
2018-10-09T00:44:41.623Z,10.20
2018-10-09T00:47:09.325Z,10.20
2018-10-09T00:49:37.010Z,10.10
2018-10-09T00:52:04.714Z,10.10
2018-10-09T00:54:32.390Z,10.10
2018-10-09T00:57:00.133Z,10.10
2018-10-09T00:59:27.821Z,10.20
2018-10-09T01:01:56.526Z,10.20
2018-10-09T01:04:24.248Z,10.20
2018-10-09T01:06:51.945Z,10.20
2018-10-09T01:09:19.761Z,10.20
2018-10-09T01:11:47.430Z,10.20
2018-10-09T01:14:15.090Z,10.20
2018-10-09T01:16:42.764Z,10.20
2018-10-09T01:19:10.473Z,10.30
2018-10-09T01:21:38.148Z,10.20
2018-10-09T01:24:05.889Z,10.30
2018-10-09T01:26:33.578Z,10.30
2018-10-09T01:29:01.257Z,10.30
2018-10-09T01:31:29.016Z,10.40
2018-10-09T01:33:56.688Z,10.40
2018-10-09T01:36:24.388Z,10.50
2018-10-09T01:38:52.077Z,10.50
2018-10-09T01:41:19.798Z,10.60
2018-10-09T01:43:47.520Z,10.60
2018-10-09T01:46:15.265Z,10.60
2018-10-09T01:48:42.977Z,10.50
2018-10-09T01:51:10.653Z,10.50
2018-10-09T01:53:38.369Z,10.50
2018-10-09T01:56:06.140Z,10.50
2018-10-09T01:58:33.856Z,10.40
2018-10-09T02:01:01.569Z,10.40
2018-10-09T02:03:29.293Z,10.30
2018-10-09T02:05:57.084Z,10.30
2018-10-09T02:08:24.768Z,10.30
2018-10-09T02:10:52.538Z,10.30
2018-10-09T02:13:20.209Z,10.30
2018-10-09T02:15:47.916Z,10.30
2018-10-09T02:18:15.661Z,10.40
2018-10-09T02:20:43.316Z,10.40
2018-10-09T02:23:10.993Z,10.40
2018-10-09T02:25:38.723Z,10.50
2018-10-09T02:28:06.408Z,10.50
2018-10-09T02:30:34.155Z,10.50
2018-10-09T02:33:01.900Z,10.60
2018-10-09T02:35:29.576Z,10.60
2018-10-09T02:37:57.320Z,10.60
2018-10-09T02:40:25.046Z,10.60
2018-10-09T02:42:52.773Z,10.70
2018-10-09T02:45:20.495Z,10.70
2018-10-09T02:47:48.217Z,10.70
2018-10-09T02:50:15.936Z,10.80
2018-10-09T02:52:43.605Z,10.80
2018-10-09T02:55:11.309Z,10.80
2018-10-09T02:57:39.055Z,10.80
2018-10-09T03:00:06.777Z,10.80
2018-10-09T03:02:34.449Z,10.80
2018-10-09T03:05:02.168Z,10.80
2018-10-09T03:07:29.869Z,10.90
2018-10-09T03:09:57.594Z,10.90
2018-10-09T03:12:25.265Z,10.90
2018-10-09T03:14:52.959Z,10.90
2018-10-09T03:17:20.677Z,10.90
2018-10-09T03:19:48.373Z,11.00
2018-10-09T03:22:16.090Z,11.00
2018-10-09T03:24:43.800Z,11.00
2018-10-09T03:27:11.537Z,11.00
2018-10-09T03:29:39.281Z,11.00
2018-10-09T03:32:07.343Z,11.00
2018-10-09T03:34:35.083Z,11.00
2018-10-09T03:37:02.785Z,11.00
2018-10-09T03:39:30.449Z,11.00
2018-10-09T03:41:58.158Z,11.00
2018-10-09T03:44:25.878Z,11.00
2018-10-09T03:46:53.573Z,11.00
2018-10-09T03:49:21.279Z,10.90
2018-10-09T03:51:48.948Z,10.90
2018-10-09T03:54:16.819Z,10.90
2018-10-09T03:56:44.537Z,10.90
2018-10-09T03:59:12.241Z,10.90
2018-10-09T04:01:40.104Z,10.90
2018-10-09T04:04:07.785Z,10.90
2018-10-09T04:06:35.546Z,10.90
2018-10-09T04:09:03.499Z,11.00
2018-10-09T04:11:31.164Z,11.00
2018-10-09T04:13:58.928Z,11.00
2018-10-09T04:16:26.637Z,11.10
2018-10-09T04:18:54.368Z,11.10
2018-10-09T04:21:22.053Z,11.10
2018-10-09T04:23:49.768Z,11.10
2018-10-09T04:26:17.496Z,11.10
2018-10-09T04:28:45.167Z,11.00
2018-10-09T04:31:12.900Z,11.00
2018-10-09T04:33:40.589Z,11.00
2018-10-09T04:36:08.397Z,11.00
2018-10-09T04:38:36.520Z,10.90
2018-10-09T04:41:04.197Z,11.00
2018-10-09T04:43:31.908Z,10.90
2018-10-09T04:45:59.665Z,10.90
2018-10-09T04:48:27.345Z,10.90
2018-10-09T04:50:55.068Z,10.90
2018-10-09T04:53:22.777Z,10.90
2018-10-09T04:55:50.477Z,10.90
2018-10-09T04:58:18.225Z,10.90
2018-10-09T05:00:45.989Z,10.90
2018-10-09T05:03:13.626Z,11.00
2018-10-09T05:05:41.344Z,11.00
2018-10-09T05:08:09.014Z,11.00
2018-10-09T05:10:36.729Z,11.00
2018-10-09T05:13:04.408Z,11.00
2018-10-09T05:15:32.325Z,11.00
2018-10-09T05:18:00.088Z,10.90
2018-10-09T05:20:27.753Z,10.90
2018-10-09T05:22:55.478Z,10.80
2018-10-09T05:25:23.194Z,10.80
2018-10-09T05:27:50.862Z,10.80
2018-10-09T05:30:18.597Z,10.90
2018-10-09T05:32:46.280Z,10.90
2018-10-09T05:35:13.993Z,10.90
2018-10-09T05:37:41.730Z,10.90
2018-10-09T05:40:09.461Z,10.90
2018-10-09T05:42:37.169Z,10.90
2018-10-09T05:45:04.911Z,11.00
2018-10-09T05:47:32.735Z,11.00
2018-10-09T05:50:00.469Z,11.00
2018-10-09T05:52:28.185Z,11.10
2018-10-09T05:54:55.909Z,11.10
2018-10-09T05:57:23.621Z,11.10
2018-10-09T05:59:51.297Z,11.10
2018-10-09T06:02:19.052Z,11.00
2018-10-09T06:04:46.724Z,11.00
2018-10-09T06:07:14.427Z,10.90
2018-10-09T06:09:42.097Z,10.90
2018-10-09T06:12:09.801Z,10.80
2018-10-09T06:14:37.530Z,10.80
2018-10-09T06:17:05.246Z,10.70
2018-10-09T06:19:32.961Z,10.70
2018-10-09T06:22:00.651Z,10.80
2018-10-09T06:24:28.417Z,10.80
2018-10-09T06:26:56.253Z,10.80
2018-10-09T06:29:23.933Z,10.80
2018-10-09T06:31:51.649Z,10.80
2018-10-09T06:34:19.497Z,10.90
2018-10-09T06:36:47.260Z,10.90
2018-10-09T06:39:14.961Z,10.90
2018-10-09T06:41:42.944Z,10.90
2018-10-09T06:44:10.875Z,11.00
2018-10-09T06:46:38.617Z,11.00
2018-10-09T06:49:06.455Z,11.10
2018-10-09T06:51:34.220Z,11.10
2018-10-09T06:54:02.021Z,11.10
2018-10-09T06:56:29.639Z,11.20
2018-10-09T06:58:57.377Z,11.20
2018-10-09T07:01:25.053Z,11.20
2018-10-09T07:03:52.769Z,11.20
2018-10-09T07:06:20.551Z,11.20
2018-10-09T07:08:48.265Z,11.20
2018-10-09T07:11:16.014Z,11.20
2018-10-09T07:13:43.697Z,11.20
2018-10-09T07:16:11.429Z,11.30
2018-10-09T07:18:39.101Z,11.30
2018-10-09T07:21:06.829Z,11.40
2018-10-09T07:23:34.517Z,11.40
2018-10-09T07:26:02.199Z,11.50
2018-10-09T07:28:29.924Z,11.50
2018-10-09T07:30:57.598Z,11.50
2018-10-09T07:33:25.343Z,11.60
2018-10-09T07:35:53.033Z,11.60
2018-10-09T07:38:20.745Z,11.70
2018-10-09T07:40:48.418Z,11.80
2018-10-09T07:43:16.126Z,11.80
2018-10-09T07:45:43.830Z,11.80
2018-10-09T07:48:11.586Z,11.90
2018-10-09T07:50:39.345Z,11.90
2018-10-09T07:53:07.106Z,12.00
2018-10-09T07:55:34.813Z,12.00
2018-10-09T07:58:02.549Z,12.00
2018-10-09T08:00:30.249Z,12.00
2018-10-09T08:02:57.989Z,12.10
2018-10-09T08:05:25.733Z,12.20
2018-10-09T08:07:53.541Z,12.20
2018-10-09T08:10:21.286Z,12.20
2018-10-09T08:12:49.035Z,12.20
2018-10-09T08:15:16.719Z,12.30
2018-10-09T08:17:44.448Z,12.30
2018-10-09T08:20:12.145Z,12.40
2018-10-09T08:22:39.951Z,12.40
2018-10-09T08:25:07.598Z,12.40
2018-10-09T08:27:35.328Z,12.50
2018-10-09T08:30:03.033Z,12.50
2018-10-09T08:32:30.801Z,12.50
2018-10-09T08:34:58.517Z,12.50
2018-10-09T08:37:26.238Z,12.60
2018-10-09T08:39:53.927Z,12.60
2018-10-09T08:42:21.641Z,12.60
2018-10-09T08:44:49.339Z,12.60
2018-10-09T08:47:17.109Z,12.60
2018-10-09T08:49:44.840Z,12.70
2018-10-09T08:52:12.602Z,12.80
2018-10-09T08:54:40.308Z,12.80
2018-10-09T08:57:08.059Z,12.80
2018-10-09T08:59:35.776Z,12.90
2018-10-09T09:02:03.469Z,12.90
2018-10-09T09:04:31.172Z,13.00
2018-10-09T09:06:58.868Z,13.00
2018-10-09T09:09:26.631Z,13.10
2018-10-09T09:11:54.313Z,13.20
2018-10-09T09:14:22.036Z,13.30
2018-10-09T09:16:49.725Z,13.30
2018-10-09T09:19:17.413Z,13.40
2018-10-09T09:21:45.121Z,13.50
2018-10-09T09:24:12.854Z,13.50
2018-10-09T09:26:40.647Z,13.60
2018-10-09T09:29:08.265Z,13.50
2018-10-09T09:31:35.990Z,13.60
2018-10-09T09:34:03.701Z,13.70
2018-10-09T09:36:31.416Z,13.70
2018-10-09T09:38:59.137Z,13.80
2018-10-09T09:41:26.862Z,14.00
2018-10-09T09:43:54.548Z,14.10
2018-10-09T09:46:22.304Z,14.30
2018-10-09T09:48:50.001Z,14.30
2018-10-09T09:51:17.721Z,14.50
2018-10-09T09:53:45.531Z,14.50
2018-10-09T09:56:13.243Z,14.60
2018-10-09T09:58:41.178Z,14.70
2018-10-09T10:01:09.989Z,14.80
2018-10-09T10:03:38.525Z,14.80
2018-10-09T10:06:06.437Z,14.90
2018-10-09T10:08:34.931Z,15.10
2018-10-09T10:11:02.944Z,15.20
2018-10-09T10:13:30.641Z,15.30
2018-10-09T10:15:58.379Z,15.40
2018-10-09T10:18:26.365Z,15.50
2018-10-09T10:20:54.078Z,15.60
2018-10-09T10:23:21.825Z,15.70
2018-10-09T10:25:49.501Z,15.90
2018-10-09T10:28:17.429Z,16.10
2018-10-09T10:30:45.241Z,16.30
2018-10-09T10:33:13.309Z,16.40
2018-10-09T10:35:41.024Z,16.60
2018-10-09T10:38:08.710Z,16.70
2018-10-09T10:40:36.411Z,16.80
2018-10-09T10:43:04.185Z,16.90
2018-10-09T10:45:31.960Z,17.00
2018-10-09T10:47:59.647Z,17.10
2018-10-09T10:50:27.321Z,17.40
2018-10-09T10:52:55.070Z,17.50
2018-10-09T10:55:23.746Z,17.70
2018-10-09T10:57:51.460Z,17.80
2018-10-09T11:00:19.153Z,17.90
2018-10-09T11:02:46.961Z,18.20
2018-10-09T11:05:14.589Z,18.30
2018-10-09T11:07:42.331Z,18.50
2018-10-09T11:10:10.056Z,18.60
2018-10-09T11:12:38.745Z,18.80
2018-10-09T11:15:06.464Z,19.00
2018-10-09T11:17:34.261Z,19.30
2018-10-09T11:20:01.963Z,19.50
2018-10-09T11:22:29.654Z,19.70
2018-10-09T11:24:57.363Z,19.90
2018-10-09T11:27:25.049Z,20.00
2018-10-09T11:29:52.793Z,20.10
2018-10-09T11:32:20.501Z,20.20
2018-10-09T11:34:48.205Z,20.30
2018-10-09T11:37:16.004Z,20.40
2018-10-09T11:39:43.717Z,20.50
2018-10-09T11:42:12.800Z,20.60
2018-10-09T11:44:40.512Z,20.80
2018-10-09T11:47:08.189Z,21.00
2018-10-09T11:49:35.902Z,21.20
2018-10-09T11:52:03.621Z,21.30
2018-10-09T11:54:31.289Z,21.40
2018-10-09T11:56:59.008Z,21.60
2018-10-09T11:59:26.692Z,21.80
2018-10-09T12:01:54.441Z,22.00
2018-10-09T12:04:22.129Z,22.10
2018-10-09T12:06:50.132Z,22.40
2018-10-09T12:09:17.825Z,22.60
2018-10-09T12:11:46.530Z,22.80
2018-10-09T12:14:14.252Z,23.00
2018-10-09T12:16:42.741Z,23.10
